createdAt,value
2023-01-19T00:00:42.877Z,12.0
2023-01-19T00:05:49.136Z,12.0
2023-01-19T00:10:55.210Z,13.0
2023-01-19T00:16:01.489Z,12.0
2023-01-19T00:21:07.627Z,12.0
2023-01-19T00:26:13.831Z,13.0
2023-01-19T00:31:20.101Z,12.0
2023-01-19T00:36:25.277Z,12.0
2023-01-19T00:41:31.867Z,12.0
2023-01-19T00:46:37.704Z,12.0
2023-01-19T00:51:42.923Z,13.0
2023-01-19T00:56:49.127Z,13.0
2023-01-19T01:01:55.463Z,12.0
2023-01-19T01:07:01.601Z,12.0
2023-01-19T01:12:07.755Z,13.0
2023-01-19T01:17:13.965Z,13.0
2023-01-19T01:22:20.172Z,13.0
2023-01-19T01:27:26.493Z,13.0
2023-01-19T01:32:32.598Z,13.0
2023-01-19T01:37:38.787Z,13.0
2023-01-19T01:42:44.996Z,13.0
2023-01-19T01:47:51.197Z,13.5
2023-01-19T01:53:06.554Z,13.0
2023-01-19T01:58:03.626Z,13.0
2023-01-19T02:03:09.850Z,13.0
2023-01-19T02:08:16.067Z,12.0
2023-01-19T02:13:22.236Z,12.0
2023-01-19T02:18:28.467Z,12.0
2023-01-19T02:23:34.763Z,12.0
2023-01-19T02:28:40.880Z,12.0
2023-01-19T02:33:47.066Z,12.5
2023-01-19T02:38:52.304Z,12.0
2023-01-19T02:43:58.516Z,12.0
2023-01-19T02:49:04.719Z,11.0
2023-01-19T02:54:09.961Z,12.0
2023-01-19T02:59:16.174Z,11.0
2023-01-19T03:04:22.372Z,11.0
2023-01-19T03:09:28.578Z,11.0
2023-01-19T03:14:34.787Z,11.0
2023-01-19T03:19:40.991Z,12.0
2023-01-19T03:24:47.200Z,12.0
2023-01-19T03:29:53.414Z,13.0
2023-01-19T03:34:59.637Z,12.0
2023-01-19T03:40:05.821Z,11.0
2023-01-19T03:45:12.037Z,11.0
2023-01-19T03:50:18.230Z,9.0
2023-01-19T03:55:24.445Z,9.5
2023-01-19T04:00:30.656Z,9.0
2023-01-19T04:05:36.858Z,8.0
2023-01-19T04:10:43.059Z,8.0
2023-01-19T04:15:49.312Z,8.0
2023-01-19T04:20:55.478Z,8.0
2023-01-19T04:26:01.686Z,8.0
2023-01-19T04:31:07.951Z,8.0
2023-01-19T04:36:14.115Z,8.0
2023-01-19T04:41:19.345Z,7.0
2023-01-19T04:46:25.595Z,7.0
2023-01-19T04:51:30.794Z,6.0
2023-01-19T04:56:36.981Z,6.0
2023-01-19T05:01:43.267Z,5.0
2023-01-19T05:06:49.408Z,4.0
2023-01-19T05:11:55.627Z,4.0
2023-01-19T05:17:01.810Z,3.0
2023-01-19T05:22:08.017Z,3.0
2023-01-19T05:27:14.228Z,3.0
2023-01-19T05:32:20.439Z,3.0
2023-01-19T05:37:26.653Z,3.0
2023-01-19T05:42:33.057Z,3.0
2023-01-19T05:47:39.049Z,3.0
2023-01-19T05:52:45.266Z,3.0
2023-01-19T05:57:51.474Z,3.0
2023-01-19T06:02:57.789Z,3.0
2023-01-19T06:08:03.897Z,3.0
2023-01-19T06:13:10.266Z,4.0
2023-01-19T06:18:16.322Z,4.0
2023-01-19T06:23:22.523Z,4.0
2023-01-19T06:28:28.747Z,5.0
2023-01-19T06:33:34.939Z,5.0
2023-01-19T06:38:40.188Z,6.0
2023-01-19T06:43:46.383Z,6.0
2023-01-19T06:48:51.609Z,7.0
2023-01-19T06:53:57.823Z,7.0
2023-01-19T06:59:04.031Z,8.0
2023-01-19T07:04:10.239Z,8.0
2023-01-19T07:09:16.998Z,9.0
2023-01-19T07:14:22.655Z,10.0
2023-01-19T07:19:28.855Z,11.0
2023-01-19T07:24:35.065Z,12.0
2023-01-19T07:29:41.269Z,14.0
2023-01-19T07:34:47.481Z,15.0
2023-01-19T07:39:53.688Z,16.0
2023-01-19T07:44:59.889Z,16.0
2023-01-19T07:50:06.115Z,16.5
2023-01-19T07:55:12.308Z,18.0
2023-01-19T08:00:18.552Z,19.0
2023-01-19T08:05:24.724Z,19.0
2023-01-19T08:10:30.934Z,20.0
2023-01-19T08:15:37.267Z,21.0
2023-01-19T08:20:43.336Z,21.0
2023-01-19T08:25:49.550Z,22.0
2023-01-19T08:30:55.890Z,22.0
2023-01-19T08:36:01.029Z,22.0
2023-01-19T08:41:07.203Z,22.0
2023-01-19T08:46:13.447Z,21.0
2023-01-19T08:51:18.673Z,21.0
2023-01-19T08:56:24.849Z,22.0
2023-01-19T09:01:31.186Z,21.5
2023-01-19T09:06:37.266Z,22.0
2023-01-19T09:11:43.491Z,21.5
2023-01-19T09:16:49.682Z,21.0
2023-01-19T09:21:55.888Z,19.0
2023-01-19T09:27:02.095Z,18.0
2023-01-19T09:32:08.296Z,19.0
2023-01-19T09:37:14.499Z,20.0
2023-01-19T09:42:20.713Z,23.0
2023-01-19T09:47:26.915Z,24.5
2023-01-19T09:52:33.135Z,25.0
2023-01-19T09:57:39.328Z,26.0
2023-01-19T10:02:45.558Z,26.0
2023-01-19T10:07:51.745Z,25.0
2023-01-19T10:12:58.083Z,25.0
2023-01-19T10:18:04.280Z,25.0
2023-01-19T10:23:10.368Z,27.0
2023-01-19T10:28:16.576Z,28.0
2023-01-19T10:33:22.794Z,30.0
2023-01-19T10:38:28.015Z,30.0
2023-01-19T10:43:34.306Z,29.0
2023-01-19T10:48:39.469Z,29.0
2023-01-19T10:53:45.681Z,27.0
2023-01-19T10:58:51.874Z,26.0
2023-01-19T11:03:58.107Z,27.0
2023-01-19T11:09:04.284Z,26.0
2023-01-19T11:14:10.499Z,26.0
2023-01-19T11:19:16.703Z,27.0
2023-01-19T11:24:22.912Z,25.5
2023-01-19T11:29:29.113Z,25.0
2023-01-19T11:34:35.326Z,23.0
2023-01-19T11:39:41.529Z,22.0
2023-01-19T11:44:47.741Z,20.0
2023-01-19T11:49:53.957Z,19.0
2023-01-19T11:55:00.158Z,18.0
2023-01-19T12:00:06.365Z,18.5
2023-01-19T12:05:12.607Z,17.0
2023-01-19T12:10:18.774Z,16.0
2023-01-19T12:15:25.001Z,15.0
2023-01-19T12:20:31.207Z,15.0
2023-01-19T12:25:37.430Z,14.0
2023-01-19T12:30:43.753Z,13.0
2023-01-19T12:35:48.837Z,14.0
2023-01-19T12:40:55.050Z,13.0
2023-01-19T12:46:00.324Z,13.0
2023-01-19T12:51:06.494Z,13.5
2023-01-19T12:56:12.696Z,13.0
2023-01-19T13:01:19.154Z,13.0
2023-01-19T13:06:25.134Z,12.0
2023-01-19T13:11:34.433Z,11.0
2023-01-19T13:16:37.523Z,11.0
2023-01-19T13:21:44.814Z,10.0
2023-01-19T13:26:49.938Z,9.0
2023-01-19T13:31:56.173Z,10.0
2023-01-19T13:37:02.358Z,10.0
2023-01-19T13:42:08.571Z,10.0
2023-01-19T13:47:14.780Z,10.0
2023-01-19T13:52:20.985Z,10.0
2023-01-19T13:57:27.190Z,10.0
2023-01-19T14:02:33.576Z,11.0
2023-01-19T14:07:39.652Z,9.0
2023-01-19T14:12:58.939Z,11.0
2023-01-19T14:17:52.040Z,10.0
2023-01-19T14:22:58.234Z,11.0
2023-01-19T14:28:04.427Z,11.0
2023-01-19T14:33:10.640Z,12.0
2023-01-19T14:38:15.950Z,12.0
2023-01-19T14:43:22.094Z,12.0
2023-01-19T14:48:27.320Z,12.0
2023-01-19T14:53:33.560Z,13.0
2023-01-19T14:58:39.735Z,14.0
2023-01-19T15:03:46.134Z,15.0
2023-01-19T15:08:52.144Z,15.0
2023-01-19T15:13:58.359Z,16.0
2023-01-19T15:19:04.567Z,17.0
2023-01-19T15:24:10.770Z,17.0
2023-01-19T15:29:16.982Z,16.0
2023-01-19T15:34:23.197Z,17.0
2023-01-19T15:39:29.390Z,17.0
2023-01-19T15:44:35.595Z,17.0
2023-01-19T15:49:41.819Z,17.0
2023-01-19T15:54:48.020Z,18.0
2023-01-19T15:59:54.223Z,16.0
2023-01-19T16:05:00.436Z,17.0
2023-01-19T16:10:06.639Z,17.0
2023-01-19T16:15:12.862Z,16.0
2023-01-19T16:20:19.051Z,16.0
2023-01-19T16:25:25.259Z,16.0
2023-01-19T16:30:31.511Z,16.0
2023-01-19T16:35:36.700Z,16.0
2023-01-19T16:40:42.910Z,17.0
2023-01-19T16:45:48.202Z,17.0
2023-01-19T16:50:54.346Z,17.5
2023-01-19T16:56:00.560Z,17.0
2023-01-19T17:01:06.891Z,17.0
2023-01-19T17:06:12.967Z,16.5
2023-01-19T17:11:19.185Z,17.0
2023-01-19T17:16:25.437Z,17.0
2023-01-19T17:21:31.593Z,17.0
2023-01-19T17:26:37.795Z,17.0
2023-01-19T17:31:44.089Z,16.5
2023-01-19T17:36:50.209Z,17.0
2023-01-19T17:47:02.628Z,17.5
2023-01-19T17:52:08.858Z,18.0
2023-01-19T17:57:15.046Z,18.0
2023-01-19T18:02:21.269Z,19.0
2023-01-19T18:07:27.458Z,19.0
2023-01-19T18:12:33.667Z,21.0
2023-01-19T18:17:39.884Z,19.0
2023-01-19T18:22:46.087Z,18.0
2023-01-19T18:27:52.289Z,18.0
2023-01-19T18:32:58.496Z,19.0
2023-01-19T18:38:03.733Z,19.0
2023-01-19T18:43:09.946Z,18.0
2023-01-19T18:48:17.842Z,20.0
2023-01-19T18:53:21.399Z,19.0
2023-01-19T18:58:27.607Z,20.5
2023-01-19T19:03:33.803Z,21.0
2023-01-19T19:08:40.022Z,22.0
2023-01-19T19:13:46.224Z,25.0
2023-01-19T19:18:52.427Z,21.0
2023-01-19T19:23:58.649Z,21.0
2023-01-19T19:29:04.854Z,21.0
2023-01-19T19:34:11.058Z,22.0
2023-01-19T19:39:17.250Z,22.0
2023-01-19T19:44:22.479Z,22.0
2023-01-19T19:49:28.692Z,22.0
2023-01-19T19:54:34.894Z,23.0
2023-01-19T19:59:41.117Z,24.5
2023-01-19T20:04:47.407Z,24.0
2023-01-19T20:09:53.551Z,25.0
2023-01-19T20:14:59.724Z,24.0
2023-01-19T20:20:05.973Z,23.0
2023-01-19T20:25:12.150Z,24.0
2023-01-19T20:30:18.418Z,24.0
2023-01-19T20:35:23.596Z,24.0
2023-01-19T20:40:29.792Z,23.0
2023-01-19T20:45:35.058Z,24.0
2023-01-19T20:50:41.293Z,24.5
2023-01-19T20:55:47.440Z,24.0
2023-01-19T21:00:53.749Z,23.0
2023-01-19T21:05:59.867Z,23.0
2023-01-19T21:11:06.070Z,24.0
2023-01-19T21:16:12.365Z,24.0
2023-01-19T21:21:29.977Z,29.0
2023-01-19T21:26:24.717Z,26.0
2023-01-19T21:31:31.039Z,24.0
2023-01-19T21:36:37.111Z,25.0
2023-01-19T21:41:43.388Z,25.0
2023-01-19T21:46:49.539Z,25.0
2023-01-19T21:51:55.737Z,25.0
2023-01-19T21:57:01.951Z,25.0
2023-01-19T22:02:08.316Z,25.0
2023-01-19T22:07:14.380Z,25.0
2023-01-19T22:12:20.583Z,25.0
2023-01-19T22:17:26.789Z,26.0
2023-01-19T22:22:33.021Z,26.0
2023-01-19T22:27:39.211Z,26.0
2023-01-19T22:32:44.453Z,27.5
2023-01-19T22:37:50.657Z,29.0
2023-01-19T22:42:55.888Z,28.0
2023-01-19T22:48:02.096Z,29.0
2023-01-19T22:53:08.313Z,30.0
2023-01-19T22:58:14.519Z,29.0
2023-01-19T23:03:20.728Z,28.0
2023-01-19T23:08:26.933Z,29.5
2023-01-19T23:13:33.140Z,30.0
2023-01-19T23:18:39.359Z,29.0
2023-01-19T23:23:45.553Z,30.0
2023-01-19T23:28:51.757Z,30.0
2023-01-19T23:33:57.966Z,30.0
2023-01-19T23:39:04.172Z,30.0
2023-01-19T23:44:10.385Z,29.0
2023-01-19T23:49:16.582Z,30.0
2023-01-19T23:54:22.786Z,29.5
2023-01-19T23:59:29.008Z,29.0
